sensor_id;sensor_type;location;lat;lon;timestamp;pressure;altitude;pressure_sealevel;temperature;humidity
13836;BME280;6988;52.614;13.500;2022-11-13T00:02:25;54539.06;;;-143.77;87.99
13836;BME280;6988;52.614;13.500;2022-11-13T00:07:37;54491.88;;;-143.77;88.58
13836;BME280;6988;52.614;13.500;2022-11-13T00:12:47;54495.97;;;-143.77;88.06
13836;BME280;6988;52.614;13.500;2022-11-13T00:18:00;54508.28;;;-143.77;87.43
13836;BME280;6988;52.614;13.500;2022-11-13T00:23:12;54481.59;;;-143.77;86.81
13836;BME280;6988;52.614;13.500;2022-11-13T00:28:22;54491.88;;;-143.77;87.13
13836;BME280;6988;52.614;13.500;2022-11-13T00:33:33;54508.28;;;-143.77;86.99
13836;BME280;6988;52.614;13.500;2022-11-13T00:38:46;54500.06;;;-143.77;87.10
13836;BME280;6988;52.614;13.500;2022-11-13T00:43:57;54495.97;;;-143.77;87.65
13836;BME280;6988;52.614;13.500;2022-11-13T00:49:07;54553.41;;;-143.77;88.05
13836;BME280;6988;52.614;13.500;2022-11-13T00:54:18;54516.50;;;-143.77;88.45
13836;BME280;6988;52.614;13.500;2022-11-13T00:59:28;54526.75;;;-143.77;88.26
13836;BME280;6988;52.614;13.500;2022-11-13T01:04:39;54495.97;;;-143.77;88.57
13836;BME280;6988;52.614;13.500;2022-11-13T01:09:51;54506.22;;;-143.77;88.08
13836;BME280;6988;52.614;13.500;2022-11-13T01:15:01;54489.81;;;-143.77;87.27
13836;BME280;6988;52.614;13.500;2022-11-13T01:20:12;54479.56;;;-143.77;87.68
13836;BME280;6988;52.614;13.500;2022-11-13T01:25:24;54479.56;;;-143.77;87.91
13836;BME280;6988;52.614;13.500;2022-11-13T01:30:37;54500.06;;;-143.77;87.75
13836;BME280;6988;52.614;13.500;2022-11-13T01:35:48;54463.13;;;-143.77;87.84
13836;BME280;6988;52.614;13.500;2022-11-13T01:41:00;54487.75;;;-143.77;87.60
13836;BME280;6988;52.614;13.500;2022-11-13T01:46:23;54516.50;;;-143.77;87.38
13836;BME280;6988;52.614;13.500;2022-11-13T01:51:37;54483.66;;;-143.77;87.26
13836;BME280;6988;52.614;13.500;2022-11-13T01:56:51;54502.13;;;-143.77;87.14
13836;BME280;6988;52.614;13.500;2022-11-13T02:02:02;54500.06;;;-143.77;86.91
13836;BME280;6988;52.614;13.500;2022-11-13T02:07:16;54489.81;;;-143.77;86.88
13836;BME280;6988;52.614;13.500;2022-11-13T02:12:34;54508.28;;;-143.77;87.14
13836;BME280;6988;52.614;13.500;2022-11-13T02:17:50;54512.38;;;-143.77;87.02
13836;BME280;6988;52.614;13.500;2022-11-13T02:23:13;54514.44;;;-143.77;86.75
13836;BME280;6988;52.614;13.500;2022-11-13T02:28:27;54495.97;;;-143.77;86.47
13836;BME280;6988;52.614;13.500;2022-11-13T02:33:37;54469.28;;;-143.77;85.79
13836;BME280;6988;52.614;13.500;2022-11-13T02:38:50;54518.53;;;-143.77;85.61
13836;BME280;6988;52.614;13.500;2022-11-13T02:44:03;54481.59;;;-143.77;85.18
13836;BME280;6988;52.614;13.500;2022-11-13T02:49:14;54495.97;;;-143.77;84.81
13836;BME280;6988;52.614;13.500;2022-11-13T02:54:24;54498.03;;;-143.77;84.02
13836;BME280;6988;52.614;13.500;2022-11-13T02:59:36;54454.94;;;-143.77;84.17
13836;BME280;6988;52.614;13.500;2022-11-13T03:04:46;54483.66;;;-143.77;84.27
13836;BME280;6988;52.614;13.500;2022-11-13T03:09:56;54498.03;;;-143.77;84.37
13836;BME280;6988;52.614;13.500;2022-11-13T03:15:09;54469.28;;;-143.77;84.33
13836;BME280;6988;52.614;13.500;2022-11-13T03:20:20;54526.75;;;-143.77;84.28
13836;BME280;6988;52.614;13.500;2022-11-13T03:25:30;54493.91;;;-143.77;84.05
13836;BME280;6988;52.614;13.500;2022-11-13T03:30:41;54459.03;;;-143.77;84.44
13836;BME280;6988;52.614;13.500;2022-11-13T03:35:52;54452.88;;;-143.77;84.29
13836;BME280;6988;52.614;13.500;2022-11-13T03:41:02;54463.13;;;-143.77;84.00
13836;BME280;6988;52.614;13.500;2022-11-13T03:46:14;54477.50;;;-143.77;81.90
13836;BME280;6988;52.614;13.500;2022-11-13T03:51:25;54481.59;;;-143.77;81.26
13836;BME280;6988;52.614;13.500;2022-11-13T03:56:35;54446.72;;;-143.77;81.79
13836;BME280;6988;52.614;13.500;2022-11-13T04:01:47;54475.44;;;-143.77;81.77
13836;BME280;6988;52.614;13.500;2022-11-13T04:06:57;54467.25;;;-143.77;81.87
13836;BME280;6988;52.614;13.500;2022-11-13T04:12:07;54477.50;;;-143.77;82.34
13836;BME280;6988;52.614;13.500;2022-11-13T04:17:18;54491.88;;;-143.77;82.17
13836;BME280;6988;52.614;13.500;2022-11-13T04:22:29;54504.19;;;-143.77;82.17
13836;BME280;6988;52.614;13.500;2022-11-13T04:27:39;54448.78;;;-143.77;81.88
13836;BME280;6988;52.614;13.500;2022-11-13T04:32:51;54504.19;;;-143.77;82.10
13836;BME280;6988;52.614;13.500;2022-11-13T04:38:01;54491.88;;;-143.77;82.06
13836;BME280;6988;52.614;13.500;2022-11-13T04:43:12;54450.81;;;-143.77;82.01
13836;BME280;6988;52.614;13.500;2022-11-13T04:48:24;54491.88;;;-143.77;82.40
13836;BME280;6988;52.614;13.500;2022-11-13T04:53:34;54475.44;;;-143.77;82.27
13836;BME280;6988;52.614;13.500;2022-11-13T04:58:45;54475.44;;;-143.77;81.98
13836;BME280;6988;52.614;13.500;2022-11-13T05:03:56;54471.34;;;-143.77;81.34
13836;BME280;6988;52.614;13.500;2022-11-13T05:09:09;54430.31;;;-143.77;80.65
13836;BME280;6988;52.614;13.500;2022-11-13T05:14:20;54454.94;;;-143.77;80.58
13836;BME280;6988;52.614;13.500;2022-11-13T05:19:33;54479.56;;;-143.77;81.36
13836;BME280;6988;52.614;13.500;2022-11-13T05:24:43;54479.56;;;-143.77;81.16
13836;BME280;6988;52.614;13.500;2022-11-13T05:29:54;54471.34;;;-143.77;81.51
13836;BME280;6988;52.614;13.500;2022-11-13T05:35:06;54467.25;;;-143.77;81.35
13836;BME280;6988;52.614;13.500;2022-11-13T05:40:17;54493.91;;;-143.77;81.12
13836;BME280;6988;52.614;13.500;2022-11-13T05:45:28;54452.88;;;-143.77;81.42
13836;BME280;6988;52.614;13.500;2022-11-13T05:50:39;54456.97;;;-143.77;81.63
13836;BME280;6988;52.614;13.500;2022-11-13T05:55:50;54483.66;;;-143.77;81.59
13836;BME280;6988;52.614;13.500;2022-11-13T06:01:09;54473.41;;;-143.77;81.63
13836;BME280;6988;52.614;13.500;2022-11-13T06:06:23;54493.91;;;-143.77;81.75
13836;BME280;6988;52.614;13.500;2022-11-13T06:11:34;54469.28;;;-143.77;81.68
13836;BME280;6988;52.614;13.500;2022-11-13T06:16:45;54403.63;;;-143.77;81.94
13836;BME280;6988;52.614;13.500;2022-11-13T06:21:56;54469.28;;;-143.77;82.21
13836;BME280;6988;52.614;13.500;2022-11-13T06:27:07;54477.50;;;-143.77;82.56
13836;BME280;6988;52.614;13.500;2022-11-13T06:32:17;54481.59;;;-143.77;82.69
13836;BME280;6988;52.614;13.500;2022-11-13T06:37:29;54475.44;;;-143.77;83.04
13836;BME280;6988;52.614;13.500;2022-11-13T06:42:40;54487.75;;;-143.77;83.32
13836;BME280;6988;52.614;13.500;2022-11-13T06:47:50;54467.25;;;-143.77;83.54
13836;BME280;6988;52.614;13.500;2022-11-13T06:53:02;54516.50;;;-143.77;83.41
13836;BME280;6988;52.614;13.500;2022-11-13T06:58:13;54465.19;;;-143.77;83.96
13836;BME280;6988;52.614;13.500;2022-11-13T07:03:25;54459.03;;;-143.77;84.17
13836;BME280;6988;52.614;13.500;2022-11-13T07:08:37;54479.56;;;-143.77;84.15
13836;BME280;6988;52.614;13.500;2022-11-13T07:13:48;54479.56;;;-143.77;84.39
13836;BME280;6988;52.614;13.500;2022-11-13T07:18:59;54498.03;;;-143.77;84.22
13836;BME280;6988;52.614;13.500;2022-11-13T07:24:11;54456.97;;;-143.77;84.83
13836;BME280;6988;52.614;13.500;2022-11-13T07:29:21;54438.50;;;-143.77;85.34
13836;BME280;6988;52.614;13.500;2022-11-13T07:34:32;54448.78;;;-143.77;85.08
13836;BME280;6988;52.614;13.500;2022-11-13T07:39:43;54477.50;;;-143.77;85.24
13836;BME280;6988;52.614;13.500;2022-11-13T07:44:54;54467.25;;;-143.77;85.24
13836;BME280;6988;52.614;13.500;2022-11-13T07:50:05;54485.72;;;-143.77;85.28
13836;BME280;6988;52.614;13.500;2022-11-13T07:55:17;54465.19;;;-143.77;85.27
13836;BME280;6988;52.614;13.500;2022-11-13T08:00:30;54473.41;;;-143.77;85.76
13836;BME280;6988;52.614;13.500;2022-11-13T08:05:42;54461.09;;;-143.77;85.81
13836;BME280;6988;52.614;13.500;2022-11-13T08:10:54;54465.19;;;-143.77;85.68
13836;BME280;6988;52.614;13.500;2022-11-13T08:16:05;54450.81;;;-143.77;85.66
13836;BME280;6988;52.614;13.500;2022-11-13T08:21:16;54438.50;;;-143.77;85.93
13836;BME280;6988;52.614;13.500;2022-11-13T08:26:27;54473.41;;;-143.77;86.14
13836;BME280;6988;52.614;13.500;2022-11-13T08:31:38;54475.44;;;-143.77;85.93
13836;BME280;6988;52.614;13.500;2022-11-13T08:36:48;54452.88;;;-143.77;86.45
13836;BME280;6988;52.614;13.500;2022-11-13T08:42:00;54495.97;;;-143.77;86.40
13836;BME280;6988;52.614;13.500;2022-11-13T08:47:11;54461.09;;;-143.77;86.40
13836;BME280;6988;52.614;13.500;2022-11-13T08:52:21;54498.03;;;-143.77;86.60
13836;BME280;6988;52.614;13.500;2022-11-13T08:57:33;54475.44;;;-143.77;86.81
13836;BME280;6988;52.614;13.500;2022-11-13T09:02:44;54473.41;;;-143.77;87.08
13836;BME280;6988;52.614;13.500;2022-11-13T09:07:56;54446.72;;;-143.77;87.09
13836;BME280;6988;52.614;13.500;2022-11-13T09:13:10;54442.63;;;-143.77;87.00
13836;BME280;6988;52.614;13.500;2022-11-13T09:18:20;54454.94;;;-143.77;86.47
13836;BME280;6988;52.614;13.500;2022-11-13T09:23:31;54479.56;;;-143.77;86.66
13836;BME280;6988;52.614;13.500;2022-11-13T09:28:43;54444.66;;;-143.77;86.64
13836;BME280;6988;52.614;13.500;2022-11-13T09:33:53;54459.03;;;-143.77;85.36
13836;BME280;6988;52.614;13.500;2022-11-13T09:39:04;54459.03;;;-143.77;85.19
13836;BME280;6988;52.614;13.500;2022-11-13T09:44:24;54454.94;;;-143.77;84.10
13836;BME280;6988;52.614;13.500;2022-11-13T09:49:43;54422.09;;;-143.77;83.61
13836;BME280;6988;52.614;13.500;2022-11-13T09:54:55;54463.13;;;-143.77;82.66
13836;BME280;6988;52.614;13.500;2022-11-13T10:00:12;54424.16;;;-143.77;81.90
13836;BME280;6988;52.614;13.500;2022-11-13T10:05:32;54434.41;;;-143.77;81.07
13836;BME280;6988;52.614;13.500;2022-11-13T10:10:49;54430.31;;;-143.77;79.77
13836;BME280;6988;52.614;13.500;2022-11-13T10:16:16;54436.47;;;-143.77;79.35
13836;BME280;6988;52.614;13.500;2022-11-13T10:21:33;54426.19;;;-143.77;78.94
13836;BME280;6988;52.614;13.500;2022-11-13T10:26:46;54469.28;;;-143.77;79.28
13836;BME280;6988;52.614;13.500;2022-11-13T10:31:59;54426.19;;;-143.77;78.18
13836;BME280;6988;52.614;13.500;2022-11-13T10:37:45;54413.88;;;-143.77;78.70
13836;BME280;6988;52.614;13.500;2022-11-13T10:43:13;54411.84;;;-143.77;78.17
13836;BME280;6988;52.614;13.500;2022-11-13T10:48:28;54428.25;;;-143.77;78.05
13836;BME280;6988;52.614;13.500;2022-11-13T10:53:41;54422.09;;;-143.77;77.57
13836;BME280;6988;52.614;13.500;2022-11-13T10:59:01;54442.63;;;-143.77;76.88
13836;BME280;6988;52.614;13.500;2022-11-13T11:04:21;54422.09;;;-143.77;76.95
13836;BME280;6988;52.614;13.500;2022-11-13T11:09:37;54456.97;;;-143.77;76.31
13836;BME280;6988;52.614;13.500;2022-11-13T11:15:04;54430.31;;;-143.77;76.91
13836;BME280;6988;52.614;13.500;2022-11-13T11:20:31;54438.50;;;-143.77;76.14
13836;BME280;6988;52.614;13.500;2022-11-13T11:25:53;54405.69;;;-143.77;76.17
13836;BME280;6988;52.614;13.500;2022-11-13T11:31:19;54405.69;;;-143.77;75.53
13836;BME280;6988;52.614;13.500;2022-11-13T11:36:45;54411.84;;;-143.77;73.86
13836;BME280;6988;52.614;13.500;2022-11-13T11:42:09;54422.09;;;-143.77;73.46
13836;BME280;6988;52.614;13.500;2022-11-13T11:47:23;54401.56;;;-143.77;74.63
13836;BME280;6988;52.614;13.500;2022-11-13T11:52:59;54420.03;;;-143.77;74.51
13836;BME280;6988;52.614;13.500;2022-11-13T11:58:27;54411.84;;;-143.77;74.40
13836;BME280;6988;52.614;13.500;2022-11-13T12:03:59;54385.16;;;-143.77;74.59
13836;BME280;6988;52.614;13.500;2022-11-13T12:09:23;54387.22;;;-143.77;73.45
13836;BME280;6988;52.614;13.500;2022-11-13T12:14:47;54331.81;;;-143.77;72.01
13836;BME280;6988;52.614;13.500;2022-11-13T12:20:08;54360.53;;;-143.77;70.87
13836;BME280;6988;52.614;13.500;2022-11-13T12:25:34;54340.03;;;-143.77;70.52
13836;BME280;6988;52.614;13.500;2022-11-13T12:31:01;54315.41;;;-143.77;70.25
13836;BME280;6988;52.614;13.500;2022-11-13T12:36:15;54307.19;;;-143.77;70.25
13836;BME280;6988;52.614;13.500;2022-11-13T12:41:39;54352.34;;;-143.77;69.19
13836;BME280;6988;52.614;13.500;2022-11-13T12:46:52;54335.91;;;-143.77;69.55
13836;BME280;6988;52.614;13.500;2022-11-13T12:52:16;54368.75;;;-143.77;69.34
13836;BME280;6988;52.614;13.500;2022-11-13T12:57:31;54335.91;;;-143.77;68.29
13836;BME280;6988;52.614;13.500;2022-11-13T13:03:01;54372.84;;;-143.77;69.54
13836;BME280;6988;52.614;13.500;2022-11-13T13:08:52;54403.63;;;-143.77;70.58
13836;BME280;6988;52.614;13.500;2022-11-13T13:15:00;54376.97;;;-143.77;70.56
13836;BME280;6988;52.614;13.500;2022-11-13T13:20:33;54376.97;;;-143.77;70.29
13836;BME280;6988;52.614;13.500;2022-11-13T13:25:45;54360.53;;;-143.77;70.51
13836;BME280;6988;52.614;13.500;2022-11-13T13:31:05;54397.47;;;-143.77;70.69
13836;BME280;6988;52.614;13.500;2022-11-13T13:36:29;54379.00;;;-143.77;70.73
13836;BME280;6988;52.614;13.500;2022-11-13T13:41:58;54389.28;;;-143.77;70.22
13836;BME280;6988;52.614;13.500;2022-11-13T13:47:31;54383.13;;;-143.77;71.24
13836;BME280;6988;52.614;13.500;2022-11-13T13:52:43;54401.56;;;-143.77;71.69
13836;BME280;6988;52.614;13.500;2022-11-13T13:57:55;54397.47;;;-143.77;71.35
13836;BME280;6988;52.614;13.500;2022-11-13T14:03:19;54409.78;;;-143.77;71.68
13836;BME280;6988;52.614;13.500;2022-11-13T14:08:31;54413.88;;;-143.77;72.39
13836;BME280;6988;52.614;13.500;2022-11-13T14:13:42;54422.09;;;-143.77;73.38
13836;BME280;6988;52.614;13.500;2022-11-13T14:19:04;54434.41;;;-143.77;72.84
13836;BME280;6988;52.614;13.500;2022-11-13T14:24:20;54450.81;;;-143.77;73.21
13836;BME280;6988;52.614;13.500;2022-11-13T14:29:36;54446.72;;;-143.77;73.73
13836;BME280;6988;52.614;13.500;2022-11-13T14:34:53;54471.34;;;-143.77;74.42
13836;BME280;6988;52.614;13.500;2022-11-13T14:40:19;54424.16;;;-143.77;75.53
13836;BME280;6988;52.614;13.500;2022-11-13T14:45:31;54487.75;;;-143.77;76.55
13836;BME280;6988;52.614;13.500;2022-11-13T14:50:52;54514.44;;;-143.77;76.64
13836;BME280;6988;52.614;13.500;2022-11-13T14:56:06;54483.66;;;-143.77;76.88
13836;BME280;6988;52.614;13.500;2022-11-13T15:01:20;54473.41;;;-143.77;77.00
13836;BME280;6988;52.614;13.500;2022-11-13T15:06:38;54520.59;;;-143.77;77.77
13836;BME280;6988;52.614;13.500;2022-11-13T15:11:49;54514.44;;;-143.77;77.42
13836;BME280;6988;52.614;13.500;2022-11-13T15:16:59;54481.59;;;-143.77;77.84
13836;BME280;6988;52.614;13.500;2022-11-13T15:22:12;54481.59;;;-143.77;77.99
13836;BME280;6988;52.614;13.500;2022-11-13T15:27:23;54524.69;;;-143.77;78.29
13836;BME280;6988;52.614;13.500;2022-11-13T15:32:34;54528.78;;;-143.77;79.19
13836;BME280;6988;52.614;13.500;2022-11-13T15:37:46;54549.31;;;-143.77;79.41
13836;BME280;6988;52.614;13.500;2022-11-13T15:42:56;54561.63;;;-143.77;80.25
13836;BME280;6988;52.614;13.500;2022-11-13T15:48:09;54508.28;;;-143.77;80.40
13836;BME280;6988;52.614;13.500;2022-11-13T15:53:23;54528.78;;;-143.77;80.70
13836;BME280;6988;52.614;13.500;2022-11-13T15:58:33;54520.59;;;-143.77;81.19
13836;BME280;6988;52.614;13.500;2022-11-13T16:03:45;54586.25;;;-143.77;82.32
13836;BME280;6988;52.614;13.500;2022-11-13T16:08:56;54582.16;;;-143.77;83.30
13836;BME280;6988;52.614;13.500;2022-11-13T16:14:07;54557.53;;;-143.77;83.35
13836;BME280;6988;52.614;13.500;2022-11-13T16:19:22;54598.56;;;-143.77;83.52
13836;BME280;6988;52.614;13.500;2022-11-13T16:24:35;54586.25;;;-143.77;83.41
13836;BME280;6988;52.614;13.500;2022-11-13T16:29:45;54545.22;;;-143.77;83.80
13836;BME280;6988;52.614;13.500;2022-11-13T16:34:56;54578.03;;;-143.77;83.76
13836;BME280;6988;52.614;13.500;2022-11-13T16:40:18;54592.41;;;-143.77;83.89
13836;BME280;6988;52.614;13.500;2022-11-13T16:45:29;54590.34;;;-143.77;84.63
13836;BME280;6988;52.614;13.500;2022-11-13T16:50:41;54582.16;;;-143.77;84.23
13836;BME280;6988;52.614;13.500;2022-11-13T16:55:54;54588.31;;;-143.77;83.37
13836;BME280;6988;52.614;13.500;2022-11-13T17:01:05;54606.78;;;-143.77;82.90
13836;BME280;6988;52.614;13.500;2022-11-13T17:06:20;54619.09;;;-143.77;83.30
13836;BME280;6988;52.614;13.500;2022-11-13T17:11:32;54592.41;;;-143.77;83.90
13836;BME280;6988;52.614;13.500;2022-11-13T17:16:43;54614.97;;;-143.77;84.33
13836;BME280;6988;52.614;13.500;2022-11-13T17:21:53;54641.66;;;-143.77;85.53
13836;BME280;6988;52.614;13.500;2022-11-13T17:27:06;54590.34;;;-143.77;86.44
13836;BME280;6988;52.614;13.500;2022-11-13T17:32:17;54561.63;;;-143.77;85.60
13836;BME280;6988;52.614;13.500;2022-11-13T17:37:27;54590.34;;;-143.77;85.38
13836;BME280;6988;52.614;13.500;2022-11-13T17:42:39;54592.41;;;-143.77;85.28
13836;BME280;6988;52.614;13.500;2022-11-13T17:47:50;54614.97;;;-143.77;84.94
13836;BME280;6988;52.614;13.500;2022-11-13T17:53:00;54602.66;;;-143.77;84.78
13836;BME280;6988;52.614;13.500;2022-11-13T17:58:12;54584.19;;;-143.77;84.38
13836;BME280;6988;52.614;13.500;2022-11-13T18:03:26;54619.09;;;-143.77;84.61
13836;BME280;6988;52.614;13.500;2022-11-13T18:08:38;54582.16;;;-143.77;84.13
13836;BME280;6988;52.614;13.500;2022-11-13T18:13:51;54600.63;;;-143.77;84.49
13836;BME280;6988;52.614;13.500;2022-11-13T18:19:03;54606.78;;;-143.77;84.51
13836;BME280;6988;52.614;13.500;2022-11-13T18:24:17;54602.66;;;-143.77;84.36
13836;BME280;6988;52.614;13.500;2022-11-13T18:29:29;54576.00;;;-143.77;84.46
13836;BME280;6988;52.614;13.500;2022-11-13T18:34:40;54565.72;;;-143.77;84.59
13836;BME280;6988;52.614;13.500;2022-11-13T18:39:50;54594.47;;;-143.77;84.79
13836;BME280;6988;52.614;13.500;2022-11-13T18:45:03;54576.00;;;-143.77;84.88
13836;BME280;6988;52.614;13.500;2022-11-13T18:50:14;54594.47;;;-143.77;84.90
13836;BME280;6988;52.614;13.500;2022-11-13T18:55:24;54598.56;;;-143.77;84.60
13836;BME280;6988;52.614;13.500;2022-11-13T19:00:36;54608.81;;;-143.77;84.88
13836;BME280;6988;52.614;13.500;2022-11-13T19:05:47;54598.56;;;-143.77;84.61
13836;BME280;6988;52.614;13.500;2022-11-13T19:11:03;54600.63;;;-143.77;84.93
13836;BME280;6988;52.614;13.500;2022-11-13T19:16:18;54580.09;;;-143.77;84.85
13836;BME280;6988;52.614;13.500;2022-11-13T19:21:31;54596.50;;;-143.77;85.20
13836;BME280;6988;52.614;13.500;2022-11-13T19:26:42;54594.47;;;-143.77;85.47
13836;BME280;6988;52.614;13.500;2022-11-13T19:31:54;54573.94;;;-143.77;85.07
13836;BME280;6988;52.614;13.500;2022-11-13T19:37:05;54586.25;;;-143.77;85.18
13836;BME280;6988;52.614;13.500;2022-11-13T19:42:15;54608.81;;;-143.77;84.83
13836;BME280;6988;52.614;13.500;2022-11-13T19:47:28;54594.47;;;-143.77;84.36
13836;BME280;6988;52.614;13.500;2022-11-13T19:52:39;54606.78;;;-143.77;84.63
13836;BME280;6988;52.614;13.500;2022-11-13T19:57:49;54588.31;;;-143.77;85.03
13836;BME280;6988;52.614;13.500;2022-11-13T20:03:01;54600.63;;;-143.77;85.18
13836;BME280;6988;52.614;13.500;2022-11-13T20:08:05;54588.31;;;-143.77;85.16
13836;BME280;6988;52.614;13.500;2022-11-13T20:13:16;54594.47;;;-143.77;84.77
13836;BME280;6988;52.614;13.500;2022-11-13T20:18:29;54631.41;;;-143.77;85.00
13836;BME280;6988;52.614;13.500;2022-11-13T20:23:39;54586.25;;;-143.77;85.03
13836;BME280;6988;52.614;13.500;2022-11-13T20:28:50;54596.50;;;-143.77;84.55
13836;BME280;6988;52.614;13.500;2022-11-13T20:34:02;54602.66;;;-143.77;84.48
13836;BME280;6988;52.614;13.500;2022-11-13T20:39:13;54590.34;;;-143.77;84.66
13836;BME280;6988;52.614;13.500;2022-11-13T20:44:23;54604.72;;;-143.77;84.97
13836;BME280;6988;52.614;13.500;2022-11-13T20:49:36;54596.50;;;-143.77;85.20
13836;BME280;6988;52.614;13.500;2022-11-13T20:54:46;54619.09;;;-143.77;85.05
13836;BME280;6988;52.614;13.500;2022-11-13T20:59:58;54614.97;;;-143.77;85.01
13836;BME280;6988;52.614;13.500;2022-11-13T21:05:10;54608.81;;;-143.77;84.23
13836;BME280;6988;52.614;13.500;2022-11-13T21:10:21;54664.22;;;-143.77;83.91
13836;BME280;6988;52.614;13.500;2022-11-13T21:15:32;54619.09;;;-143.77;83.85
13836;BME280;6988;52.614;13.500;2022-11-13T21:20:43;54649.88;;;-143.77;84.17
13836;BME280;6988;52.614;13.500;2022-11-13T21:25:58;54614.97;;;-143.77;84.48
13836;BME280;6988;52.614;13.500;2022-11-13T21:31:14;54627.28;;;-143.77;84.77
13836;BME280;6988;52.614;13.500;2022-11-13T21:36:27;54635.50;;;-143.77;84.25
13836;BME280;6988;52.614;13.500;2022-11-13T21:41:38;54619.09;;;-143.77;84.31
13836;BME280;6988;52.614;13.500;2022-11-13T21:46:49;54627.28;;;-143.77;84.00
13836;BME280;6988;52.614;13.500;2022-11-13T21:52:00;54684.75;;;-143.77;84.27
13836;BME280;6988;52.614;13.500;2022-11-13T21:57:11;54623.19;;;-143.77;84.09
13836;BME280;6988;52.614;13.500;2022-11-13T22:02:22;54612.94;;;-143.77;84.23
13836;BME280;6988;52.614;13.500;2022-11-13T22:07:34;54610.88;;;-143.77;83.92
13836;BME280;6988;52.614;13.500;2022-11-13T22:12:45;54623.19;;;-143.77;84.41
13836;BME280;6988;52.614;13.500;2022-11-13T22:17:55;54590.34;;;-143.77;84.24
13836;BME280;6988;52.614;13.500;2022-11-13T22:23:07;54635.50;;;-143.77;84.22
13836;BME280;6988;52.614;13.500;2022-11-13T22:28:17;54639.59;;;-143.77;84.35
13836;BME280;6988;52.614;13.500;2022-11-13T22:33:30;54629.34;;;-143.77;84.85
13836;BME280;6988;52.614;13.500;2022-11-13T22:38:43;54643.72;;;-143.77;84.69
13836;BME280;6988;52.614;13.500;2022-11-13T22:43:57;54592.41;;;-143.77;84.74
13836;BME280;6988;52.614;13.500;2022-11-13T23:05:16;54631.41;;;-143.77;86.69
13836;BME280;6988;52.614;13.500;2022-11-13T23:10:27;54633.44;;;-143.77;86.15
13836;BME280;6988;52.614;13.500;2022-11-13T23:15:37;54647.81;;;-143.77;86.12
13836;BME280;6988;52.614;13.500;2022-11-13T23:20:49;54627.28;;;-143.77;85.71
13836;BME280;6988;52.614;13.500;2022-11-13T23:26:00;54614.97;;;-143.77;85.40
13836;BME280;6988;52.614;13.500;2022-11-13T23:31:10;54631.41;;;-143.77;85.21
13836;BME280;6988;52.614;13.500;2022-11-13T23:36:22;54631.41;;;-143.77;85.28
13836;BME280;6988;52.614;13.500;2022-11-13T23:41:33;54617.03;;;-143.77;85.62
13836;BME280;6988;52.614;13.500;2022-11-13T23:46:44;54623.19;;;-143.77;85.54
13836;BME280;6988;52.614;13.500;2022-11-13T23:51:56;54621.13;;;-143.77;85.42
13836;BME280;6988;52.614;13.500;2022-11-13T23:57:06;54662.19;;;-143.77;85.09
